Airport View

Enter AWOS ICAO identifier for current METAR.

ex. KFNL

KTSP 171155Z AUTO 00000KT 10SM FEW015 04/M07 A3020 RMK AO2

17 Nov 2019 12:11

Frequency: 120.025

Phone: 661-823-0473

Other Area AWOS: KMHV - KWJF - KSDB - KEDW

TAF KWJF 171122Z 1712/1812 VRB03KT P6SM SKC FM171900 07010KT P6SM SKC FM180200 31006KT P6SM SKC FM180500 VRB03KT P6SM SKC